sensor_id;sensor_type;location;lat;lon;timestamp;pressure;altitude;pressure_sealevel;temperature
19644;BMP180;9970;-36.854;174.870;2023-04-01T00:01:01;100831.00;;;21.10
19644;BMP180;9970;-36.854;174.870;2023-04-01T00:03:35;100825.00;;;21.10
19644;BMP180;9970;-36.854;174.870;2023-04-01T00:06:09;100822.00;;;21.10
19644;BMP180;9970;-36.854;174.870;2023-04-01T00:08:42;100830.00;;;21.10
19644;BMP180;9970;-36.854;174.870;2023-04-01T00:11:16;100815.00;;;21.10
19644;BMP180;9970;-36.854;174.870;2023-04-01T00:13:49;100813.00;;;21.10
19644;BMP180;9970;-36.854;174.870;2023-04-01T00:16:21;100818.00;;;21.10
19644;BMP180;9970;-36.854;174.870;2023-04-01T00:18:54;100803.00;;;21.10
19644;BMP180;9970;-36.854;174.870;2023-04-01T00:21:27;100808.00;;;21.10
19644;BMP180;9970;-36.854;174.870;2023-04-01T00:24:00;100807.00;;;21.10
19644;BMP180;9970;-36.854;174.870;2023-04-01T00:26:33;100807.00;;;21.10
19644;BMP180;9970;-36.854;174.870;2023-04-01T00:29:06;100800.00;;;21.10
19644;BMP180;9970;-36.854;174.870;2023-04-01T00:31:39;100801.00;;;21.10
19644;BMP180;9970;-36.854;174.870;2023-04-01T00:34:12;100799.00;;;21.10
19644;BMP180;9970;-36.854;174.870;2023-04-01T00:36:44;100798.00;;;21.10
19644;BMP180;9970;-36.854;174.870;2023-04-01T00:39:17;100791.00;;;21.00
19644;BMP180;9970;-36.854;174.870;2023-04-01T00:41:50;100795.00;;;21.00
19644;BMP180;9970;-36.854;174.870;2023-04-01T00:44:24;100788.00;;;21.00
19644;BMP180;9970;-36.854;174.870;2023-04-01T00:46:57;100788.00;;;21.00
19644;BMP180;9970;-36.854;174.870;2023-04-01T00:49:32;100784.00;;;20.90
19644;BMP180;9970;-36.854;174.870;2023-04-01T00:52:07;100784.00;;;20.90
19644;BMP180;9970;-36.854;174.870;2023-04-01T00:54:42;100782.00;;;20.90
19644;BMP180;9970;-36.854;174.870;2023-04-01T00:57:27;100780.00;;;20.90
19644;BMP180;9970;-36.854;174.870;2023-04-01T00:59:56;100785.00;;;20.80
19644;BMP180;9970;-36.854;174.870;2023-04-01T01:02:30;100783.00;;;20.80
19644;BMP180;9970;-36.854;174.870;2023-04-01T01:05:11;100785.00;;;20.70
19644;BMP180;9970;-36.854;174.870;2023-04-01T01:08:01;100783.00;;;20.70
19644;BMP180;9970;-36.854;174.870;2023-04-01T01:10:31;100780.00;;;20.60
19644;BMP180;9970;-36.854;174.870;2023-04-01T01:16:04;100778.00;;;20.60
19644;BMP180;9970;-36.854;174.870;2023-04-01T01:28:35;100732.00;;;20.30
19644;BMP180;9970;-36.854;174.870;2023-04-01T01:36:28;100707.00;;;20.30
19644;BMP180;9970;-36.854;174.870;2023-04-01T01:39:03;100715.00;;;20.40
19644;BMP180;9970;-36.854;174.870;2023-04-01T01:41:37;100709.00;;;20.40
19644;BMP180;9970;-36.854;174.870;2023-04-01T01:44:11;100712.00;;;20.40
19644;BMP180;9970;-36.854;174.870;2023-04-01T01:46:46;100716.00;;;20.40
19644;BMP180;9970;-36.854;174.870;2023-04-01T01:49:21;100716.00;;;20.40
19644;BMP180;9970;-36.854;174.870;2023-04-01T01:51:54;100717.00;;;20.50
19644;BMP180;9970;-36.854;174.870;2023-04-01T01:54:27;100718.00;;;20.50
19644;BMP180;9970;-36.854;174.870;2023-04-01T01:57:10;100727.00;;;20.50
19644;BMP180;9970;-36.854;174.870;2023-04-01T01:59:44;100729.00;;;20.50
19644;BMP180;9970;-36.854;174.870;2023-04-01T02:02:18;100732.00;;;20.50
19644;BMP180;9970;-36.854;174.870;2023-04-01T02:04:52;100734.00;;;20.40
19644;BMP180;9970;-36.854;174.870;2023-04-01T02:07:31;100736.00;;;20.40
19644;BMP180;9970;-36.854;174.870;2023-04-01T02:10:05;100719.00;;;20.40
19644;BMP180;9970;-36.854;174.870;2023-04-01T02:12:39;100716.00;;;20.40
19644;BMP180;9970;-36.854;174.870;2023-04-01T02:15:14;100719.00;;;20.40
19644;BMP180;9970;-36.854;174.870;2023-04-01T02:17:49;100717.00;;;20.40
19644;BMP180;9970;-36.854;174.870;2023-04-01T02:20:24;100718.00;;;20.40
19644;BMP180;9970;-36.854;174.870;2023-04-01T02:22:57;100721.00;;;20.40
19644;BMP180;9970;-36.854;174.870;2023-04-01T02:25:33;100721.00;;;20.40
19644;BMP180;9970;-36.854;174.870;2023-04-01T02:28:06;100717.00;;;20.50
19644;BMP180;9970;-36.854;174.870;2023-04-01T02:30:40;100727.00;;;20.50
19644;BMP180;9970;-36.854;174.870;2023-04-01T02:33:14;100719.00;;;20.50
19644;BMP180;9970;-36.854;174.870;2023-04-01T02:35:47;100717.00;;;20.50
19644;BMP180;9970;-36.854;174.870;2023-04-01T02:38:21;100717.00;;;20.50
19644;BMP180;9970;-36.854;174.870;2023-04-01T02:40:59;100714.00;;;20.50
19644;BMP180;9970;-36.854;174.870;2023-04-01T02:43:32;100701.00;;;20.50
19644;BMP180;9970;-36.854;174.870;2023-04-01T02:46:05;100686.00;;;20.50
19644;BMP180;9970;-36.854;174.870;2023-04-01T02:48:41;100685.00;;;20.60
19644;BMP180;9970;-36.854;174.870;2023-04-01T02:51:14;100690.00;;;20.60
19644;BMP180;9970;-36.854;174.870;2023-04-01T02:53:47;100683.00;;;20.70
19644;BMP180;9970;-36.854;174.870;2023-04-01T02:56:20;100685.00;;;20.70
19644;BMP180;9970;-36.854;174.870;2023-04-01T02:58:55;100687.00;;;20.80
19644;BMP180;9970;-36.854;174.870;2023-04-01T03:01:28;100687.00;;;20.80
19644;BMP180;9970;-36.854;174.870;2023-04-01T03:04:01;100687.00;;;20.80
19644;BMP180;9970;-36.854;174.870;2023-04-01T03:06:34;100687.00;;;20.80
19644;BMP180;9970;-36.854;174.870;2023-04-01T03:09:07;100685.00;;;20.80
19644;BMP180;9970;-36.854;174.870;2023-04-01T03:11:41;100688.00;;;20.80
19644;BMP180;9970;-36.854;174.870;2023-04-01T03:14:14;100668.00;;;20.80
19644;BMP180;9970;-36.854;174.870;2023-04-01T03:16:47;100677.00;;;20.80
19644;BMP180;9970;-36.854;174.870;2023-04-01T03:19:20;100669.00;;;20.80
19644;BMP180;9970;-36.854;174.870;2023-04-01T03:21:53;100666.00;;;20.80
19644;BMP180;9970;-36.854;174.870;2023-04-01T03:24:25;100660.00;;;20.70
19644;BMP180;9970;-36.854;174.870;2023-04-01T03:27:01;100660.00;;;20.70
19644;BMP180;9970;-36.854;174.870;2023-04-01T03:29:34;100655.00;;;20.70
19644;BMP180;9970;-36.854;174.870;2023-04-01T03:32:07;100661.00;;;20.70
19644;BMP180;9970;-36.854;174.870;2023-04-01T03:34:40;100658.00;;;20.70
19644;BMP180;9970;-36.854;174.870;2023-04-01T03:37:14;100665.00;;;20.70
19644;BMP180;9970;-36.854;174.870;2023-04-01T03:39:47;100659.00;;;20.70
19644;BMP180;9970;-36.854;174.870;2023-04-01T03:42:20;100664.00;;;20.70
19644;BMP180;9970;-36.854;174.870;2023-04-01T03:44:53;100654.00;;;20.70
19644;BMP180;9970;-36.854;174.870;2023-04-01T03:47:26;100670.00;;;20.70
19644;BMP180;9970;-36.854;174.870;2023-04-01T03:49:59;100655.00;;;20.70
19644;BMP180;9970;-36.854;174.870;2023-04-01T03:52:32;100664.00;;;20.70
19644;BMP180;9970;-36.854;174.870;2023-04-01T03:55:05;100667.00;;;20.70
19644;BMP180;9970;-36.854;174.870;2023-04-01T03:57:38;100664.00;;;20.70
19644;BMP180;9970;-36.854;174.870;2023-04-01T04:00:12;100663.00;;;20.70
19644;BMP180;9970;-36.854;174.870;2023-04-01T04:02:46;100660.00;;;20.70
19644;BMP180;9970;-36.854;174.870;2023-04-01T04:05:19;100667.00;;;20.70
19644;BMP180;9970;-36.854;174.870;2023-04-01T04:07:53;100669.00;;;20.70
19644;BMP180;9970;-36.854;174.870;2023-04-01T04:10:26;100659.00;;;20.70
19644;BMP180;9970;-36.854;174.870;2023-04-01T04:13:00;100658.00;;;20.70
19644;BMP180;9970;-36.854;174.870;2023-04-01T04:15:33;100669.00;;;20.70
19644;BMP180;9970;-36.854;174.870;2023-04-01T04:18:06;100662.00;;;20.70
19644;BMP180;9970;-36.854;174.870;2023-04-01T04:20:49;100665.00;;;20.70
19644;BMP180;9970;-36.854;174.870;2023-04-01T04:23:14;100660.00;;;20.70
19644;BMP180;9970;-36.854;174.870;2023-04-01T04:26:01;100656.00;;;20.70
19644;BMP180;9970;-36.854;174.870;2023-04-01T04:28:38;100661.00;;;20.70
19644;BMP180;9970;-36.854;174.870;2023-04-01T04:31:11;100660.00;;;20.70
19644;BMP180;9970;-36.854;174.870;2023-04-01T04:33:44;100662.00;;;20.70
19644;BMP180;9970;-36.854;174.870;2023-04-01T04:36:17;100664.00;;;20.70
19644;BMP180;9970;-36.854;174.870;2023-04-01T04:38:50;100658.00;;;20.70
19644;BMP180;9970;-36.854;174.870;2023-04-01T04:41:23;100668.00;;;20.70
19644;BMP180;9970;-36.854;174.870;2023-04-01T04:43:57;100673.00;;;20.70
19644;BMP180;9970;-36.854;174.870;2023-04-01T04:46:30;100664.00;;;20.70
19644;BMP180;9970;-36.854;174.870;2023-04-01T04:49:03;100664.00;;;20.70
19644;BMP180;9970;-36.854;174.870;2023-04-01T04:51:36;100665.00;;;20.70
19644;BMP180;9970;-36.854;174.870;2023-04-01T04:54:09;100670.00;;;20.70
19644;BMP180;9970;-36.854;174.870;2023-04-01T04:56:46;100667.00;;;20.70
19644;BMP180;9970;-36.854;174.870;2023-04-01T04:59:19;100675.00;;;20.70
19644;BMP180;9970;-36.854;174.870;2023-04-01T05:01:52;100673.00;;;20.70
19644;BMP180;9970;-36.854;174.870;2023-04-01T05:04:26;100684.00;;;20.70
19644;BMP180;9970;-36.854;174.870;2023-04-01T05:06:58;100682.00;;;20.70
19644;BMP180;9970;-36.854;174.870;2023-04-01T05:09:32;100685.00;;;20.70
19644;BMP180;9970;-36.854;174.870;2023-04-01T05:12:04;100678.00;;;20.70
19644;BMP180;9970;-36.854;174.870;2023-04-01T05:14:38;100690.00;;;20.70
19644;BMP180;9970;-36.854;174.870;2023-04-01T05:17:11;100687.00;;;20.70
19644;BMP180;9970;-36.854;174.870;2023-04-01T05:19:44;100689.00;;;20.70
19644;BMP180;9970;-36.854;174.870;2023-04-01T05:22:17;100695.00;;;20.60
19644;BMP180;9970;-36.854;174.870;2023-04-01T05:24:50;100699.00;;;20.60
19644;BMP180;9970;-36.854;174.870;2023-04-01T05:27:23;100695.00;;;20.60
19644;BMP180;9970;-36.854;174.870;2023-04-01T05:29:56;100701.00;;;20.60
19644;BMP180;9970;-36.854;174.870;2023-04-01T05:32:30;100712.00;;;20.60
19644;BMP180;9970;-36.854;174.870;2023-04-01T05:35:03;100706.00;;;20.60
19644;BMP180;9970;-36.854;174.870;2023-04-01T05:37:36;100712.00;;;20.60
19644;BMP180;9970;-36.854;174.870;2023-04-01T05:40:10;100710.00;;;20.60
19644;BMP180;9970;-36.854;174.870;2023-04-01T05:42:43;100715.00;;;20.60
19644;BMP180;9970;-36.854;174.870;2023-04-01T05:45:16;100704.00;;;20.60
19644;BMP180;9970;-36.854;174.870;2023-04-01T05:47:49;100711.00;;;20.60
19644;BMP180;9970;-36.854;174.870;2023-04-01T05:50:22;100716.00;;;20.60
19644;BMP180;9970;-36.854;174.870;2023-04-01T05:52:55;100712.00;;;20.60
19644;BMP180;9970;-36.854;174.870;2023-04-01T05:55:28;100705.00;;;20.60
19644;BMP180;9970;-36.854;174.870;2023-04-01T05:58:01;100723.00;;;20.60
19644;BMP180;9970;-36.854;174.870;2023-04-01T06:00:34;100726.00;;;20.60
19644;BMP180;9970;-36.854;174.870;2023-04-01T06:03:08;100713.00;;;20.60
19644;BMP180;9970;-36.854;174.870;2023-04-01T06:05:43;100724.00;;;20.60
19644;BMP180;9970;-36.854;174.870;2023-04-01T06:08:19;100719.00;;;20.60
19644;BMP180;9970;-36.854;174.870;2023-04-01T06:17:02;100720.00;;;20.60
19644;BMP180;9970;-36.854;174.870;2023-04-01T06:25:38;100731.00;;;20.50
19644;BMP180;9970;-36.854;174.870;2023-04-01T06:28:23;100720.00;;;20.50
19644;BMP180;9970;-36.854;174.870;2023-04-01T06:42:15;100705.00;;;20.50
19644;BMP180;9970;-36.854;174.870;2023-04-01T06:45:00;100704.00;;;20.50
19644;BMP180;9970;-36.854;174.870;2023-04-01T06:48:02;100703.00;;;20.50
19644;BMP180;9970;-36.854;174.870;2023-04-01T06:53:35;100732.00;;;20.50
19644;BMP180;9970;-36.854;174.870;2023-04-01T06:56:10;100731.00;;;20.50
19644;BMP180;9970;-36.854;174.870;2023-04-01T06:58:57;100732.00;;;20.50
19644;BMP180;9970;-36.854;174.870;2023-04-01T07:04:34;100737.00;;;20.50
19644;BMP180;9970;-36.854;174.870;2023-04-01T07:07:14;100728.00;;;20.50
19644;BMP180;9970;-36.854;174.870;2023-04-01T07:09:52;100740.00;;;20.50
19644;BMP180;9970;-36.854;174.870;2023-04-01T07:12:23;100732.00;;;20.50
19644;BMP180;9970;-36.854;174.870;2023-04-01T07:14:56;100729.00;;;20.50
19644;BMP180;9970;-36.854;174.870;2023-04-01T07:17:31;100730.00;;;20.50
19644;BMP180;9970;-36.854;174.870;2023-04-01T07:20:32;100738.00;;;20.60
19644;BMP180;9970;-36.854;174.870;2023-04-01T07:22:51;100739.00;;;20.50
19644;BMP180;9970;-36.854;174.870;2023-04-01T07:25:35;100744.00;;;20.60
19644;BMP180;9970;-36.854;174.870;2023-04-01T07:28:16;100750.00;;;20.60
19644;BMP180;9970;-36.854;174.870;2023-04-01T07:33:58;100748.00;;;20.50
19644;BMP180;9970;-36.854;174.870;2023-04-01T07:42:04;100773.00;;;20.50
19644;BMP180;9970;-36.854;174.870;2023-04-01T07:47:50;100763.00;;;20.60
19644;BMP180;9970;-36.854;174.870;2023-04-01T07:50:31;100762.00;;;20.60
19644;BMP180;9970;-36.854;174.870;2023-04-01T07:53:15;100771.00;;;20.60
19644;BMP180;9970;-36.854;174.870;2023-04-01T07:56:12;100761.00;;;20.60
19644;BMP180;9970;-36.854;174.870;2023-04-01T08:01:45;100771.00;;;20.50
19644;BMP180;9970;-36.854;174.870;2023-04-01T08:07:10;100771.00;;;20.60
19644;BMP180;9970;-36.854;174.870;2023-04-01T08:15:57;100778.00;;;20.50
19644;BMP180;9970;-36.854;174.870;2023-04-01T08:21:28;100780.00;;;20.50
19644;BMP180;9970;-36.854;174.870;2023-04-01T08:24:10;100782.00;;;20.50
19644;BMP180;9970;-36.854;174.870;2023-04-01T08:26:39;100782.00;;;20.50
19644;BMP180;9970;-36.854;174.870;2023-04-01T08:29:20;100788.00;;;20.50
19644;BMP180;9970;-36.854;174.870;2023-04-01T08:31:58;100792.00;;;20.50
19644;BMP180;9970;-36.854;174.870;2023-04-01T08:34:36;100789.00;;;20.50
19644;BMP180;9970;-36.854;174.870;2023-04-01T08:37:19;100807.00;;;20.50
19644;BMP180;9970;-36.854;174.870;2023-04-01T08:40:00;100822.00;;;20.50
19644;BMP180;9970;-36.854;174.870;2023-04-01T08:42:53;100806.00;;;20.50
19644;BMP180;9970;-36.854;174.870;2023-04-01T08:48:37;100805.00;;;20.50
19644;BMP180;9970;-36.854;174.870;2023-04-01T08:54:04;100791.00;;;20.50
19644;BMP180;9970;-36.854;174.870;2023-04-01T08:56:56;100795.00;;;20.50
19644;BMP180;9970;-36.854;174.870;2023-04-01T09:02:27;100786.00;;;20.50
19644;BMP180;9970;-36.854;174.870;2023-04-01T09:08:21;100797.00;;;20.40
19644;BMP180;9970;-36.854;174.870;2023-04-01T09:11:12;100808.00;;;20.40
19644;BMP180;9970;-36.854;174.870;2023-04-01T09:17:00;100816.00;;;20.40
19644;BMP180;9970;-36.854;174.870;2023-04-01T09:19:38;100804.00;;;20.30
19644;BMP180;9970;-36.854;174.870;2023-04-01T09:31:13;100801.00;;;20.30
19644;BMP180;9970;-36.854;174.870;2023-04-01T09:34:07;100800.00;;;20.30
19644;BMP180;9970;-36.854;174.870;2023-04-01T09:48:05;100811.00;;;20.30
19644;BMP180;9970;-36.854;174.870;2023-04-01T09:51:00;100823.00;;;20.20
19644;BMP180;9970;-36.854;174.870;2023-04-01T09:53:54;100823.00;;;20.20
19644;BMP180;9970;-36.854;174.870;2023-04-01T10:08:34;100820.00;;;20.20
19644;BMP180;9970;-36.854;174.870;2023-04-01T10:14:36;100829.00;;;20.20
19644;BMP180;9970;-36.854;174.870;2023-04-01T10:20:18;100818.00;;;20.20
19644;BMP180;9970;-36.854;174.870;2023-04-01T10:40:03;100801.00;;;20.20
19644;BMP180;9970;-36.854;174.870;2023-04-01T10:42:55;100815.00;;;20.20
19644;BMP180;9970;-36.854;174.870;2023-04-01T10:57:16;100782.00;;;20.20
19644;BMP180;9970;-36.854;174.870;2023-04-01T11:05:52;100781.00;;;20.20
19644;BMP180;9970;-36.854;174.870;2023-04-01T11:08:46;100783.00;;;20.20
19644;BMP180;9970;-36.854;174.870;2023-04-01T11:17:11;100786.00;;;20.20
19644;BMP180;9970;-36.854;174.870;2023-04-01T11:22:48;100780.00;;;20.20
19644;BMP180;9970;-36.854;174.870;2023-04-01T11:45:36;100790.00;;;20.20
19644;BMP180;9970;-36.854;174.870;2023-04-01T11:48:27;100800.00;;;20.20
19644;BMP180;9970;-36.854;174.870;2023-04-01T11:57:20;100791.00;;;20.20
19644;BMP180;9970;-36.854;174.870;2023-04-01T12:03:05;100777.00;;;20.20
19644;BMP180;9970;-36.854;174.870;2023-04-01T12:22:39;100759.00;;;20.20
19644;BMP180;9970;-36.854;174.870;2023-04-01T12:30:57;100767.00;;;20.20
19644;BMP180;9970;-36.854;174.870;2023-04-01T12:39:22;100766.00;;;20.20
19644;BMP180;9970;-36.854;174.870;2023-04-01T12:44:51;100779.00;;;20.20
19644;BMP180;9970;-36.854;174.870;2023-04-01T12:52:57;100763.00;;;20.20
19644;BMP180;9970;-36.854;174.870;2023-04-01T12:55:36;100776.00;;;20.20
19644;BMP180;9970;-36.854;174.870;2023-04-01T12:58:25;100763.00;;;20.20
19644;BMP180;9970;-36.854;174.870;2023-04-01T13:01:22;100763.00;;;20.20
19644;BMP180;9970;-36.854;174.870;2023-04-01T13:04:22;100754.00;;;20.20
19644;BMP180;9970;-36.854;174.870;2023-04-01T13:10:11;100753.00;;;20.20
19644;BMP180;9970;-36.854;174.870;2023-04-01T13:12:48;100756.00;;;20.20
19644;BMP180;9970;-36.854;174.870;2023-04-01T13:23:49;100759.00;;;20.20
19644;BMP180;9970;-36.854;174.870;2023-04-01T13:35:26;100773.00;;;20.20
19644;BMP180;9970;-36.854;174.870;2023-04-01T13:43:34;100778.00;;;20.20
19644;BMP180;9970;-36.854;174.870;2023-04-01T13:46:16;100783.00;;;20.20
19644;BMP180;9970;-36.854;174.870;2023-04-01T13:49:19;100790.00;;;20.20
19644;BMP180;9970;-36.854;174.870;2023-04-01T13:52:29;100783.00;;;20.20
19644;BMP180;9970;-36.854;174.870;2023-04-01T14:00:25;100776.00;;;20.20
19644;BMP180;9970;-36.854;174.870;2023-04-01T14:03:26;100766.00;;;20.20
19644;BMP180;9970;-36.854;174.870;2023-04-01T14:11:51;100756.00;;;20.20
19644;BMP180;9970;-36.854;174.870;2023-04-01T14:17:35;100755.00;;;20.20
19644;BMP180;9970;-36.854;174.870;2023-04-01T14:29:09;100765.00;;;20.20
19644;BMP180;9970;-36.854;174.870;2023-04-01T14:34:53;100762.00;;;20.20
19644;BMP180;9970;-36.854;174.870;2023-04-01T14:37:43;100752.00;;;20.20
19644;BMP180;9970;-36.854;174.870;2023-04-01T14:51:52;100736.00;;;20.20
19644;BMP180;9970;-36.854;174.870;2023-04-01T14:54:38;100740.00;;;20.20
19644;BMP180;9970;-36.854;174.870;2023-04-01T15:31:36;100704.00;;;20.20
19644;BMP180;9970;-36.854;174.870;2023-04-01T15:36:58;100710.00;;;20.20
19644;BMP180;9970;-36.854;174.870;2023-04-01T15:42:11;100707.00;;;20.20
19644;BMP180;9970;-36.854;174.870;2023-04-01T15:45:05;100703.00;;;20.20
19644;BMP180;9970;-36.854;174.870;2023-04-01T15:50:23;100700.00;;;20.20
19644;BMP180;9970;-36.854;174.870;2023-04-01T15:53:08;100706.00;;;20.20
19644;BMP180;9970;-36.854;174.870;2023-04-01T15:55:46;100715.00;;;20.20
19644;BMP180;9970;-36.854;174.870;2023-04-01T15:58:38;100715.00;;;20.20
19644;BMP180;9970;-36.854;174.870;2023-04-01T16:09:56;100715.00;;;20.20
19644;BMP180;9970;-36.854;174.870;2023-04-01T16:15:37;100716.00;;;20.20
19644;BMP180;9970;-36.854;174.870;2023-04-01T16:21:05;100718.00;;;20.20
19644;BMP180;9970;-36.854;174.870;2023-04-01T16:23:50;100709.00;;;20.20
19644;BMP180;9970;-36.854;174.870;2023-04-01T16:26:26;100707.00;;;20.20
19644;BMP180;9970;-36.854;174.870;2023-04-01T16:38:22;100725.00;;;20.20
19644;BMP180;9970;-36.854;174.870;2023-04-01T16:41:10;100723.00;;;20.20
19644;BMP180;9970;-36.854;174.870;2023-04-01T16:43:52;100728.00;;;20.20
19644;BMP180;9970;-36.854;174.870;2023-04-01T16:46:34;100728.00;;;20.20
19644;BMP180;9970;-36.854;174.870;2023-04-01T16:49:31;100735.00;;;20.20
19644;BMP180;9970;-36.854;174.870;2023-04-01T16:54:59;100730.00;;;20.20
19644;BMP180;9970;-36.854;174.870;2023-04-01T16:57:55;100732.00;;;20.20
19644;BMP180;9970;-36.854;174.870;2023-04-01T17:00:49;100737.00;;;20.20
19644;BMP180;9970;-36.854;174.870;2023-04-01T17:06:01;100740.00;;;20.10
19644;BMP180;9970;-36.854;174.870;2023-04-01T17:11:35;100741.00;;;20.10
19644;BMP180;9970;-36.854;174.870;2023-04-01T17:16:56;100751.00;;;20.10
19644;BMP180;9970;-36.854;174.870;2023-04-01T17:19:41;100754.00;;;20.10
19644;BMP180;9970;-36.854;174.870;2023-04-01T17:27:55;100747.00;;;20.10
19644;BMP180;9970;-36.854;174.870;2023-04-01T17:30:33;100753.00;;;20.10
19644;BMP180;9970;-36.854;174.870;2023-04-01T17:33:22;100748.00;;;20.10
19644;BMP180;9970;-36.854;174.870;2023-04-01T17:41:56;100753.00;;;20.10
19644;BMP180;9970;-36.854;174.870;2023-04-01T18:04:55;100735.00;;;20.10
19644;BMP180;9970;-36.854;174.870;2023-04-01T18:10:41;100729.00;;;20.00
19644;BMP180;9970;-36.854;174.870;2023-04-01T18:13:28;100739.00;;;20.00
19644;BMP180;9970;-36.854;174.870;2023-04-01T18:16:21;100739.00;;;20.00
19644;BMP180;9970;-36.854;174.870;2023-04-01T18:19:08;100730.00;;;20.00
19644;BMP180;9970;-36.854;174.870;2023-04-01T18:21:46;100732.00;;;20.00
19644;BMP180;9970;-36.854;174.870;2023-04-01T18:24:40;100734.00;;;20.00
19644;BMP180;9970;-36.854;174.870;2023-04-01T18:27:28;100736.00;;;20.00
19644;BMP180;9970;-36.854;174.870;2023-04-01T18:30:07;100729.00;;;20.00
19644;BMP180;9970;-36.854;174.870;2023-04-01T18:32:49;100727.00;;;20.00
19644;BMP180;9970;-36.854;174.870;2023-04-01T18:38:11;100720.00;;;20.00
19644;BMP180;9970;-36.854;174.870;2023-04-01T18:43:35;100712.00;;;19.90
19644;BMP180;9970;-36.854;174.870;2023-04-01T18:46:23;100709.00;;;19.90
19644;BMP180;9970;-36.854;174.870;2023-04-01T18:49:20;100720.00;;;19.90
19644;BMP180;9970;-36.854;174.870;2023-04-01T18:51:55;100721.00;;;19.90
19644;BMP180;9970;-36.854;174.870;2023-04-01T18:54:47;100734.00;;;19.90
19644;BMP180;9970;-36.854;174.870;2023-04-01T18:57:16;100733.00;;;19.90
19644;BMP180;9970;-36.854;174.870;2023-04-01T18:59:55;100735.00;;;19.90
19644;BMP180;9970;-36.854;174.870;2023-04-01T19:02:41;100741.00;;;19.90
19644;BMP180;9970;-36.854;174.870;2023-04-01T19:05:20;100741.00;;;19.90
19644;BMP180;9970;-36.854;174.870;2023-04-01T19:08:12;100750.00;;;19.80
19644;BMP180;9970;-36.854;174.870;2023-04-01T19:10:45;100753.00;;;19.80
19644;BMP180;9970;-36.854;174.870;2023-04-01T19:13:47;100751.00;;;19.80
19644;BMP180;9970;-36.854;174.870;2023-04-01T19:19:46;100759.00;;;19.80
19644;BMP180;9970;-36.854;174.870;2023-04-01T19:25:23;100760.00;;;19.80
19644;BMP180;9970;-36.854;174.870;2023-04-01T19:28:07;100756.00;;;19.80
19644;BMP180;9970;-36.854;174.870;2023-04-01T19:30:54;100757.00;;;19.80
19644;BMP180;9970;-36.854;174.870;2023-04-01T19:36:59;100770.00;;;19.70
19644;BMP180;9970;-36.854;174.870;2023-04-01T19:45:29;100777.00;;;19.70
19644;BMP180;9970;-36.854;174.870;2023-04-01T19:48:13;100772.00;;;19.70
19644;BMP180;9970;-36.854;174.870;2023-04-01T19:51:04;100779.00;;;19.70
19644;BMP180;9970;-36.854;174.870;2023-04-01T19:56:24;100789.00;;;19.70
19644;BMP180;9970;-36.854;174.870;2023-04-01T19:59:16;100784.00;;;19.70
19644;BMP180;9970;-36.854;174.870;2023-04-01T20:01:59;100781.00;;;19.70
19644;BMP180;9970;-36.854;174.870;2023-04-01T20:04:40;100792.00;;;19.70
19644;BMP180;9970;-36.854;174.870;2023-04-01T20:07:32;100796.00;;;19.80
19644;BMP180;9970;-36.854;174.870;2023-04-01T20:10:16;100805.00;;;19.80
19644;BMP180;9970;-36.854;174.870;2023-04-01T20:15:45;100819.00;;;19.80
19644;BMP180;9970;-36.854;174.870;2023-04-01T20:18:26;100813.00;;;19.80
19644;BMP180;9970;-36.854;174.870;2023-04-01T20:20:59;100802.00;;;19.80
19644;BMP180;9970;-36.854;174.870;2023-04-01T20:23:52;100805.00;;;19.90
19644;BMP180;9970;-36.854;174.870;2023-04-01T20:26:29;100811.00;;;19.90
19644;BMP180;9970;-36.854;174.870;2023-04-01T20:31:44;100810.00;;;19.90
19644;BMP180;9970;-36.854;174.870;2023-04-01T20:34:26;100813.00;;;19.90
19644;BMP180;9970;-36.854;174.870;2023-04-01T20:40:02;100810.00;;;20.00
19644;BMP180;9970;-36.854;174.870;2023-04-01T20:46:03;100820.00;;;20.00
19644;BMP180;9970;-36.854;174.870;2023-04-01T20:48:20;100816.00;;;20.00
19644;BMP180;9970;-36.854;174.870;2023-04-01T20:50:49;100813.00;;;20.00
19644;BMP180;9970;-36.854;174.870;2023-04-01T21:07:46;100839.00;;;20.10
19644;BMP180;9970;-36.854;174.870;2023-04-01T21:10:43;100835.00;;;20.10
19644;BMP180;9970;-36.854;174.870;2023-04-01T21:19:01;100831.00;;;20.10
19644;BMP180;9970;-36.854;174.870;2023-04-01T21:24:29;100826.00;;;20.10
19644;BMP180;9970;-36.854;174.870;2023-04-01T21:30:11;100839.00;;;20.20
19644;BMP180;9970;-36.854;174.870;2023-04-01T21:41:03;100851.00;;;20.20
19644;BMP180;9970;-36.854;174.870;2023-04-01T21:44:02;100844.00;;;20.30
19644;BMP180;9970;-36.854;174.870;2023-04-01T21:53:09;100834.00;;;20.50
19644;BMP180;9970;-36.854;174.870;2023-04-01T21:55:59;100830.00;;;20.50
19644;BMP180;9970;-36.854;174.870;2023-04-01T21:58:38;100847.00;;;20.60
19644;BMP180;9970;-36.854;174.870;2023-04-01T22:06:38;100851.00;;;20.80
19644;BMP180;9970;-36.854;174.870;2023-04-01T22:12:17;100843.00;;;20.90
19644;BMP180;9970;-36.854;174.870;2023-04-01T22:14:57;100844.00;;;20.90
19644;BMP180;9970;-36.854;174.870;2023-04-01T22:23:27;100833.00;;;21.10
19644;BMP180;9970;-36.854;174.870;2023-04-01T22:28:49;100833.00;;;21.20
19644;BMP180;9970;-36.854;174.870;2023-04-01T22:31:38;100838.00;;;21.20
19644;BMP180;9970;-36.854;174.870;2023-04-01T22:37:10;100830.00;;;21.30
19644;BMP180;9970;-36.854;174.870;2023-04-01T22:42:45;100824.00;;;21.30
19644;BMP180;9970;-36.854;174.870;2023-04-01T22:45:33;100820.00;;;21.40
19644;BMP180;9970;-36.854;174.870;2023-04-01T22:48:12;100811.00;;;21.50
19644;BMP180;9970;-36.854;174.870;2023-04-01T22:53:50;100815.00;;;21.60
19644;BMP180;9970;-36.854;174.870;2023-04-01T22:56:28;100818.00;;;21.70
19644;BMP180;9970;-36.854;174.870;2023-04-01T22:59:11;100820.00;;;21.80
19644;BMP180;9970;-36.854;174.870;2023-04-01T23:01:58;100815.00;;;21.80
19644;BMP180;9970;-36.854;174.870;2023-04-01T23:04:33;100818.00;;;21.90
19644;BMP180;9970;-36.854;174.870;2023-04-01T23:07:03;100816.00;;;21.90
19644;BMP180;9970;-36.854;174.870;2023-04-01T23:09:37;100812.00;;;21.90